createdAt,value
2023-01-30T00:02:08.177Z,17.73
2023-01-30T00:04:35.139Z,26.67
2023-01-30T00:07:02.019Z,27.20
2023-01-30T00:09:28.895Z,22.80
2023-01-30T00:11:55.804Z,23.85
2023-01-30T00:14:22.711Z,26.77
2023-01-30T00:16:49.709Z,28.00
2023-01-30T00:19:16.558Z,29.58
2023-01-30T00:21:43.516Z,24.15
2023-01-30T00:24:10.649Z,25.60
2023-01-30T00:26:37.628Z,25.05
2023-01-30T00:29:04.643Z,23.83
2023-01-30T00:31:31.581Z,21.58
2023-01-30T00:33:58.512Z,20.88
2023-01-30T00:36:25.408Z,21.70
2023-01-30T00:38:52.304Z,24.70
2023-01-30T00:41:19.276Z,18.00
2023-01-30T00:44:04.595Z,21.15
2023-01-30T00:46:51.729Z,21.60
2023-01-30T00:49:19.943Z,21.00
2023-01-30T00:51:46.925Z,23.80
2023-01-30T00:54:13.967Z,20.17
2023-01-30T00:56:40.979Z,22.63
2023-01-30T00:59:07.966Z,20.10
2023-01-30T01:01:34.932Z,22.83
2023-01-30T01:04:02.139Z,26.95
2023-01-30T01:06:29.339Z,25.50
2023-01-30T01:08:56.757Z,22.38
2023-01-30T01:11:29.767Z,24.25
2023-01-30T01:13:58.854Z,24.67
2023-01-30T01:16:27.363Z,27.00
2023-01-30T01:18:54.612Z,21.73
2023-01-30T01:21:22.344Z,11.88
2023-01-30T01:23:54.867Z,21.70
2023-01-30T01:26:22.172Z,20.40
2023-01-30T01:28:49.087Z,21.67
2023-01-30T01:31:17.638Z,20.63
2023-01-30T01:33:44.727Z,22.23
2023-01-30T01:36:16.202Z,19.17
2023-01-30T01:38:47.029Z,20.92
2023-01-30T01:41:15.184Z,16.48
2023-01-30T01:44:04.019Z,18.27
2023-01-30T01:46:43.047Z,16.38
2023-01-30T01:49:17.089Z,21.25
2023-01-30T01:51:56.853Z,21.98
2023-01-30T01:54:39.100Z,20.80
2023-01-30T01:57:11.981Z,19.65
2023-01-30T01:59:43.725Z,19.05
2023-01-30T02:02:12.297Z,25.20
2023-01-30T02:05:00.762Z,24.27
2023-01-30T02:07:30.164Z,25.00
2023-01-30T02:09:57.670Z,24.20
2023-01-30T02:12:25.094Z,25.67
2023-01-30T02:14:54.254Z,24.80
2023-01-30T02:17:21.152Z,24.83
2023-01-30T02:20:03.163Z,22.30
2023-01-30T02:25:37.722Z,19.27
2023-01-30T02:28:36.915Z,21.13
2023-01-30T02:31:12.959Z,22.23
2023-01-30T02:33:57.677Z,25.67
2023-01-30T02:36:36.842Z,24.27
2023-01-30T02:39:27.111Z,24.73
2023-01-30T02:42:20.790Z,25.65
2023-01-30T02:45:26.542Z,21.80
2023-01-30T02:48:07.069Z,23.17
2023-01-30T02:51:04.115Z,20.52
2023-01-30T02:53:34.772Z,23.75
2023-01-30T02:58:34.540Z,17.65
2023-01-30T03:01:10.663Z,21.23
2023-01-30T03:04:18.543Z,20.42
2023-01-30T03:07:15.363Z,16.25
2023-01-30T03:09:52.433Z,19.20
2023-01-30T03:12:49.161Z,20.90
2023-01-30T03:15:24.811Z,18.05
2023-01-30T03:17:52.161Z,15.23
2023-01-30T03:20:20.370Z,15.43
2023-01-30T03:22:47.896Z,18.20
2023-01-30T03:25:19.775Z,16.02
2023-01-30T03:27:48.203Z,13.35
2023-01-30T03:30:15.635Z,15.05
2023-01-30T03:32:42.651Z,15.20
2023-01-30T03:35:09.889Z,12.98
2023-01-30T03:37:37.008Z,13.15
2023-01-30T03:40:04.710Z,12.20
2023-01-30T03:42:32.279Z,11.77
2023-01-30T03:44:59.146Z,11.95
2023-01-30T03:47:26.127Z,11.75
2023-01-30T03:49:54.736Z,10.32
2023-01-30T03:52:21.776Z,11.10
2023-01-30T03:54:49.213Z,11.23
2023-01-30T03:57:16.261Z,10.85
2023-01-30T03:59:44.070Z,10.70
2023-01-30T04:02:14.940Z,9.80
2023-01-30T04:04:44.644Z,10.53
2023-01-30T04:07:11.929Z,10.30
2023-01-30T04:09:40.659Z,9.70
2023-01-30T04:12:08.046Z,8.95
2023-01-30T04:14:41.030Z,10.40
2023-01-30T04:17:28.241Z,8.85
2023-01-30T04:19:58.440Z,9.20
2023-01-30T04:22:26.352Z,10.05
2023-01-30T04:24:53.472Z,9.02
2023-01-30T04:27:20.774Z,9.80
2023-01-30T04:30:08.569Z,8.93
2023-01-30T04:32:35.512Z,9.23
2023-01-30T04:35:05.360Z,10.07
2023-01-30T04:37:32.326Z,8.45
2023-01-30T04:39:59.452Z,8.88
2023-01-30T04:42:27.621Z,8.30
2023-01-30T04:45:20.561Z,7.70
2023-01-30T04:47:49.749Z,7.05
2023-01-30T04:50:16.776Z,7.63
2023-01-30T04:52:43.681Z,7.60
2023-01-30T04:55:11.942Z,7.03
2023-01-30T04:57:38.977Z,7.60
2023-01-30T05:00:07.113Z,7.35
2023-01-30T05:02:36.797Z,6.95
2023-01-30T05:05:04.077Z,8.07
2023-01-30T05:07:31.209Z,7.35
2023-01-30T05:09:58.316Z,7.43
2023-01-30T05:12:25.457Z,7.68
2023-01-30T05:14:53.218Z,7.30
2023-01-30T05:17:20.481Z,6.57
2023-01-30T05:19:47.551Z,9.40
2023-01-30T05:22:14.531Z,8.45
2023-01-30T05:24:41.363Z,8.10
2023-01-30T05:27:08.324Z,7.80
2023-01-30T05:29:35.184Z,6.05
2023-01-30T05:32:02.142Z,6.82
2023-01-30T05:34:29.038Z,6.60
2023-01-30T05:36:56.032Z,6.20
2023-01-30T05:39:22.913Z,5.78
2023-01-30T05:41:49.941Z,6.55
2023-01-30T05:44:16.871Z,6.72
2023-01-30T05:46:43.924Z,7.30
2023-01-30T05:49:10.774Z,6.20
2023-01-30T05:51:37.796Z,6.40
2023-01-30T05:54:04.729Z,6.13
2023-01-30T05:56:33.405Z,6.05
2023-01-30T05:59:01.691Z,5.97
2023-01-30T06:01:29.480Z,5.47
2023-01-30T06:03:56.713Z,5.95
2023-01-30T06:06:23.922Z,6.45
2023-01-30T06:08:55.433Z,6.45
2023-01-30T06:11:23.658Z,4.35
2023-01-30T06:13:50.698Z,5.60
2023-01-30T06:16:19.128Z,5.72
2023-01-30T06:18:49.188Z,5.82
2023-01-30T06:21:16.724Z,4.88
2023-01-30T06:23:43.860Z,5.95
2023-01-30T06:26:11.035Z,4.15
2023-01-30T06:28:38.050Z,5.30
2023-01-30T06:31:08.797Z,4.57
2023-01-30T06:33:35.929Z,4.47
2023-01-30T06:36:03.212Z,3.63
2023-01-30T06:38:30.087Z,4.35
2023-01-30T06:40:57.158Z,4.20
2023-01-30T06:43:24.030Z,4.53
2023-01-30T06:45:51.110Z,3.63
2023-01-30T06:48:18.007Z,4.97
2023-01-30T06:50:46.608Z,5.22
2023-01-30T06:53:13.644Z,5.32
2023-01-30T06:55:40.556Z,4.85
2023-01-30T06:58:09.779Z,4.65
2023-01-30T07:00:39.651Z,5.40
2023-01-30T07:03:11.462Z,5.63
2023-01-30T07:08:06.278Z,4.70
2023-01-30T07:10:33.421Z,4.85
2023-01-30T07:13:00.554Z,6.65
2023-01-30T07:15:27.936Z,4.60
2023-01-30T07:17:54.869Z,4.90
2023-01-30T07:20:21.895Z,4.10
2023-01-30T07:22:55.397Z,4.97
2023-01-30T07:25:24.235Z,4.30
2023-01-30T07:27:52.411Z,4.35
2023-01-30T07:30:19.619Z,4.10
2023-01-30T07:32:57.897Z,2.70
2023-01-30T07:35:27.193Z,4.25
2023-01-30T07:37:54.162Z,3.50
2023-01-30T07:40:21.967Z,3.00
2023-01-30T07:43:08.209Z,3.20
2023-01-30T07:45:41.279Z,3.28
2023-01-30T07:48:10.633Z,3.15
2023-01-30T07:50:37.702Z,3.20
2023-01-30T07:53:05.687Z,2.53
2023-01-30T07:55:33.001Z,2.85
2023-01-30T07:57:59.961Z,3.30
2023-01-30T08:00:27.515Z,4.68
2023-01-30T08:02:54.663Z,3.92
2023-01-30T08:05:21.650Z,4.20
2023-01-30T08:07:48.773Z,7.40
2023-01-30T08:10:16.686Z,3.90
2023-01-30T08:12:43.926Z,15.88
2023-01-30T08:15:11.319Z,3.33
2023-01-30T08:17:38.361Z,2.78
2023-01-30T08:20:05.861Z,2.95
2023-01-30T08:22:32.812Z,3.30
2023-01-30T08:24:59.964Z,3.20
2023-01-30T08:27:26.945Z,3.75
2023-01-30T08:29:53.954Z,2.35
2023-01-30T08:32:20.860Z,4.70
2023-01-30T08:34:47.793Z,3.55
2023-01-30T08:37:14.772Z,3.85
2023-01-30T08:39:41.773Z,3.00
2023-01-30T08:42:08.769Z,3.50
2023-01-30T08:44:35.679Z,3.15
2023-01-30T08:47:03.312Z,4.70
2023-01-30T08:49:30.311Z,4.82
2023-01-30T08:51:57.293Z,3.67
2023-01-30T08:54:24.221Z,4.10
2023-01-30T08:56:51.223Z,4.40
2023-01-30T08:59:18.144Z,5.10
2023-01-30T09:01:45.193Z,3.97
2023-01-30T09:04:12.095Z,4.20
2023-01-30T09:06:39.006Z,4.60
2023-01-30T09:09:06.060Z,5.25
2023-01-30T09:11:32.965Z,7.90
2023-01-30T09:13:59.941Z,5.95
2023-01-30T09:16:26.874Z,5.97
2023-01-30T09:18:53.870Z,5.65
2023-01-30T09:21:22.187Z,9.57
2023-01-30T09:23:49.038Z,9.55
2023-01-30T09:26:16.050Z,13.35
2023-01-30T09:28:43.112Z,10.30
2023-01-30T09:31:10.210Z,12.50
2023-01-30T09:33:37.250Z,9.23
2023-01-30T09:36:04.682Z,6.68
2023-01-30T09:38:31.598Z,7.22
2023-01-30T09:41:38.915Z,11.02
2023-01-30T09:44:15.135Z,9.15
2023-01-30T09:46:54.360Z,9.50
2023-01-30T09:49:36.178Z,9.32
2023-01-30T09:52:36.680Z,6.32
2023-01-30T09:55:22.676Z,11.65
2023-01-30T09:57:51.041Z,11.13
2023-01-30T10:00:25.873Z,7.28
2023-01-30T10:03:12.139Z,7.18
2023-01-30T10:05:47.299Z,7.50
2023-01-30T10:08:35.678Z,4.93
2023-01-30T10:11:28.789Z,4.40
2023-01-30T10:14:37.480Z,8.57
2023-01-30T10:17:32.616Z,10.40
2023-01-30T10:19:59.771Z,7.82
2023-01-30T10:22:53.870Z,11.05
2023-01-30T10:25:31.682Z,5.78
2023-01-30T10:28:18.285Z,6.72
2023-01-30T10:30:47.306Z,6.50
2023-01-30T10:33:34.500Z,6.03
2023-01-30T10:36:08.689Z,4.25
2023-01-30T10:38:35.585Z,5.65
2023-01-30T10:41:12.506Z,5.38
2023-01-30T10:43:43.184Z,4.60
2023-01-30T10:46:10.297Z,6.68
2023-01-30T10:48:53.420Z,6.70
2023-01-30T10:51:34.411Z,10.70
2023-01-30T10:54:14.124Z,7.60
2023-01-30T10:56:53.534Z,7.15
2023-01-30T10:59:41.026Z,13.63
2023-01-30T11:02:34.068Z,14.30
2023-01-30T11:05:04.727Z,17.25
2023-01-30T11:07:33.036Z,12.23
2023-01-30T11:10:00.736Z,15.32
2023-01-30T11:12:27.760Z,16.85
2023-01-30T11:15:00.219Z,13.80
2023-01-30T11:17:35.767Z,15.55
2023-01-30T11:20:16.381Z,17.02
2023-01-30T11:23:30.299Z,27.33
2023-01-30T11:26:10.628Z,20.13
2023-01-30T11:28:45.192Z,21.98
2023-01-30T11:31:40.937Z,19.88
2023-01-30T11:34:15.977Z,22.38
2023-01-30T11:36:43.539Z,26.58
2023-01-30T11:39:13.371Z,16.00
2023-01-30T11:42:01.844Z,16.45
2023-01-30T11:44:36.696Z,15.82
2023-01-30T11:47:27.661Z,18.38
2023-01-30T11:50:11.116Z,17.00
2023-01-30T11:52:47.090Z,11.85
2023-01-30T11:55:16.533Z,8.77
2023-01-30T11:58:01.243Z,12.00
2023-01-30T12:00:38.925Z,13.73
2023-01-30T12:03:10.960Z,19.23
2023-01-30T12:05:42.576Z,25.92
2023-01-30T12:08:12.294Z,19.02
2023-01-30T12:10:46.274Z,17.42
2023-01-30T12:13:33.398Z,13.35
2023-01-30T12:16:40.663Z,6.80
2023-01-30T12:19:17.101Z,13.75
2023-01-30T12:21:55.178Z,68.10
2023-01-30T12:24:43.540Z,18.40
2023-01-30T12:27:44.837Z,22.52
2023-01-30T12:30:18.311Z,18.23
2023-01-30T12:32:45.519Z,19.48
2023-01-30T12:35:17.794Z,19.45
2023-01-30T12:38:17.470Z,13.85
2023-01-30T12:41:21.870Z,16.13
2023-01-30T12:44:07.949Z,15.35
2023-01-30T12:46:53.198Z,7.13
2023-01-30T12:49:46.167Z,11.50
2023-01-30T12:52:31.610Z,17.02
2023-01-30T12:55:29.251Z,10.52
2023-01-30T12:58:20.571Z,12.68
2023-01-30T13:01:25.330Z,11.75
2023-01-30T13:03:58.729Z,14.18
2023-01-30T13:06:47.044Z,15.40
2023-01-30T13:09:36.301Z,15.57
2023-01-30T13:12:12.521Z,18.13
2023-01-30T13:15:04.148Z,5.28
2023-01-30T13:17:57.270Z,12.05
2023-01-30T13:21:01.847Z,9.13
2023-01-30T13:23:47.194Z,7.38
2023-01-30T13:26:19.924Z,9.73
2023-01-30T13:29:03.356Z,8.50
2023-01-30T13:31:36.523Z,12.43
2023-01-30T13:34:15.070Z,6.35
2023-01-30T13:36:50.349Z,4.68
2023-01-30T13:39:42.340Z,5.75
2023-01-30T13:42:21.589Z,9.30
2023-01-30T13:44:49.652Z,7.40
2023-01-30T13:47:35.067Z,6.18
2023-01-30T13:50:11.091Z,1.88
2023-01-30T13:52:44.034Z,7.50
2023-01-30T13:55:37.320Z,8.32
2023-01-30T13:58:25.166Z,10.98
2023-01-30T14:00:54.117Z,9.82
2023-01-30T14:03:30.806Z,3.92
2023-01-30T14:05:59.258Z,17.00
2023-01-30T14:08:45.073Z,7.68
2023-01-30T14:11:49.663Z,7.47
2023-01-30T14:14:19.370Z,11.25
2023-01-30T14:16:49.203Z,6.15
2023-01-30T14:19:47.419Z,8.18
2023-01-30T14:22:26.460Z,5.63
2023-01-30T14:25:32.986Z,7.85
2023-01-30T14:27:59.968Z,8.48
2023-01-30T14:30:45.745Z,8.02
2023-01-30T14:33:21.891Z,13.20
2023-01-30T14:35:54.769Z,13.00
2023-01-30T14:38:22.442Z,12.68
2023-01-30T14:41:16.806Z,7.35
2023-01-30T14:43:43.780Z,16.15
2023-01-30T14:46:19.964Z,14.82
2023-01-30T14:48:53.578Z,20.38
2023-01-30T14:51:39.388Z,16.27
2023-01-30T14:54:13.287Z,14.45
2023-01-30T14:56:55.746Z,9.07
2023-01-30T14:59:30.802Z,6.07
2023-01-30T15:02:21.817Z,11.68
2023-01-30T15:05:11.844Z,17.50
2023-01-30T15:07:48.348Z,17.00
2023-01-30T15:10:24.545Z,19.67
2023-01-30T15:13:13.982Z,14.50
2023-01-30T15:15:47.949Z,20.38
2023-01-30T15:18:43.741Z,17.17
2023-01-30T15:21:47.694Z,18.63
2023-01-30T15:24:47.943Z,30.55
2023-01-30T15:27:35.370Z,17.92
2023-01-30T15:30:22.003Z,18.10
2023-01-30T15:32:50.232Z,8.90
2023-01-30T15:35:18.847Z,6.68
2023-01-30T15:37:57.355Z,9.90
2023-01-30T15:40:27.391Z,6.97
2023-01-30T15:43:21.039Z,8.65
2023-01-30T15:46:04.099Z,7.90
2023-01-30T15:48:53.733Z,3.72
2023-01-30T15:51:27.560Z,8.15
2023-01-30T15:53:56.131Z,1.40
2023-01-30T15:56:29.335Z,6.80
2023-01-30T15:58:59.031Z,8.93
2023-01-30T16:01:26.663Z,7.57
2023-01-30T16:03:54.208Z,7.38
2023-01-30T16:06:22.501Z,8.75
2023-01-30T16:09:01.168Z,4.75
2023-01-30T16:11:40.854Z,8.18
2023-01-30T16:14:21.720Z,6.93
2023-01-30T16:16:56.069Z,3.45
2023-01-30T16:19:33.649Z,7.13
2023-01-30T16:22:03.352Z,5.50
2023-01-30T16:24:33.072Z,4.40
2023-01-30T16:27:04.134Z,4.68
2023-01-30T16:29:33.998Z,4.57
2023-01-30T16:32:01.428Z,3.63
2023-01-30T16:34:30.443Z,8.77
2023-01-30T16:37:02.267Z,4.40
2023-01-30T16:42:01.387Z,4.13
2023-01-30T16:44:30.518Z,3.10
2023-01-30T16:47:29.022Z,9.07
2023-01-30T16:49:56.358Z,6.55
2023-01-30T16:52:28.449Z,5.90
2023-01-30T16:54:58.319Z,5.63
2023-01-30T16:57:40.508Z,4.22
2023-01-30T17:00:20.705Z,9.05
2023-01-30T17:02:55.142Z,10.35
2023-01-30T17:05:23.462Z,8.88
2023-01-30T17:07:51.928Z,7.65
2023-01-30T17:10:37.560Z,11.10
2023-01-30T17:13:05.066Z,9.13
2023-01-30T17:15:33.379Z,3.58
2023-01-30T17:18:00.721Z,8.07
2023-01-30T17:20:37.366Z,57.30
2023-01-30T17:23:06.923Z,6.32
2023-01-30T17:25:45.781Z,7.60
2023-01-30T17:28:18.262Z,16.35
2023-01-30T17:30:45.456Z,9.77
2023-01-30T17:33:12.600Z,12.00
2023-01-30T17:35:40.600Z,14.75
2023-01-30T17:38:07.794Z,13.10
2023-01-30T17:40:38.186Z,9.02
2023-01-30T17:43:05.795Z,10.48
2023-01-30T17:45:34.353Z,6.97
2023-01-30T17:48:02.491Z,5.20
2023-01-30T17:50:30.307Z,6.75
2023-01-30T17:52:57.935Z,9.38
2023-01-30T17:55:25.695Z,12.50
2023-01-30T17:57:54.822Z,9.80
2023-01-30T18:00:24.792Z,5.35
2023-01-30T18:02:53.421Z,9.15
2023-01-30T18:05:23.296Z,10.90
2023-01-30T18:07:50.415Z,9.35
2023-01-30T18:10:20.141Z,7.75
2023-01-30T18:12:48.497Z,7.78
2023-01-30T18:15:18.018Z,8.20
2023-01-30T18:17:48.225Z,10.07
2023-01-30T18:20:20.467Z,8.70
2023-01-30T18:22:53.585Z,9.02
2023-01-30T18:25:31.231Z,10.75
2023-01-30T18:28:05.922Z,8.68
2023-01-30T18:30:35.171Z,10.15
2023-01-30T18:33:03.973Z,14.43
2023-01-30T18:35:31.883Z,16.45
2023-01-30T18:38:02.601Z,16.55
2023-01-30T18:40:30.210Z,21.23
2023-01-30T18:42:57.236Z,13.80
2023-01-30T18:45:24.348Z,10.50
2023-01-30T18:47:52.721Z,11.00
2023-01-30T18:50:20.440Z,11.23
2023-01-30T18:52:48.389Z,14.65
2023-01-30T18:55:15.574Z,9.55
2023-01-30T18:57:42.679Z,13.35
2023-01-30T19:00:10.409Z,9.90
2023-01-30T19:02:37.552Z,11.73
2023-01-30T19:05:04.867Z,8.48
2023-01-30T19:07:32.009Z,9.40
2023-01-30T19:09:59.554Z,17.75
2023-01-30T19:12:45.066Z,9.45
2023-01-30T19:15:12.102Z,8.43
2023-01-30T19:17:42.208Z,11.75
2023-01-30T19:20:11.094Z,14.55
2023-01-30T19:22:39.168Z,13.02
2023-01-30T19:25:06.693Z,18.95
2023-01-30T19:27:36.922Z,15.52
2023-01-30T19:30:05.085Z,20.67
2023-01-30T19:32:32.403Z,15.48
2023-01-30T19:34:59.484Z,14.35
2023-01-30T19:37:26.417Z,15.98
2023-01-30T19:39:53.510Z,16.08
2023-01-30T19:42:20.569Z,19.60
2023-01-30T19:44:47.650Z,18.10
2023-01-30T19:47:14.794Z,20.27
2023-01-30T19:49:42.581Z,23.48
2023-01-30T19:52:09.586Z,16.75
2023-01-30T19:54:36.562Z,17.73
2023-01-30T19:57:03.705Z,9.15
2023-01-30T19:59:30.888Z,13.82
2023-01-30T20:01:57.794Z,23.52
2023-01-30T20:04:25.051Z,18.30
2023-01-30T20:06:52.327Z,20.55
2023-01-30T20:09:19.603Z,18.23
2023-01-30T20:11:46.499Z,23.67
2023-01-30T20:14:13.832Z,22.25
2023-01-30T20:16:41.325Z,20.42
2023-01-30T20:19:15.991Z,13.02
2023-01-30T20:21:44.901Z,19.15
2023-01-30T20:24:19.984Z,17.52
2023-01-30T20:26:48.960Z,15.27
2023-01-30T20:29:17.822Z,17.67
2023-01-30T20:31:45.654Z,17.60
2023-01-30T20:34:15.159Z,30.42
2023-01-30T20:36:43.483Z,15.45
2023-01-30T20:39:12.990Z,17.02
2023-01-30T20:41:40.969Z,15.20
2023-01-30T20:44:11.684Z,25.55
2023-01-30T20:46:44.607Z,18.10
2023-01-30T20:49:17.995Z,18.58
2023-01-30T20:51:46.838Z,14.27
2023-01-30T20:54:15.240Z,31.83
2023-01-30T20:56:47.070Z,23.58
2023-01-30T20:59:17.985Z,24.13
2023-01-30T21:01:45.424Z,20.02
2023-01-30T21:04:15.068Z,19.83
2023-01-30T21:06:45.682Z,29.17
2023-01-30T21:09:19.178Z,17.65
2023-01-30T21:11:46.948Z,17.73
2023-01-30T21:14:14.848Z,21.88
2023-01-30T21:16:42.296Z,12.10
2023-01-30T21:19:14.246Z,12.18
2023-01-30T21:21:46.955Z,14.32
2023-01-30T21:24:15.439Z,12.05
2023-01-30T21:26:46.391Z,17.90
2023-01-30T21:29:15.688Z,16.85
2023-01-30T21:31:44.430Z,26.00
2023-01-30T21:34:12.237Z,14.15
2023-01-30T21:36:39.471Z,14.38
2023-01-30T21:39:25.043Z,14.52
2023-01-30T21:41:51.941Z,19.98
2023-01-30T21:44:20.422Z,17.88
2023-01-30T21:46:48.342Z,13.18
2023-01-30T21:49:17.082Z,20.90
2023-01-30T21:51:45.638Z,13.00
2023-01-30T21:54:13.393Z,18.92
2023-01-30T21:56:40.924Z,15.20
2023-01-30T21:59:08.571Z,14.60
2023-01-30T22:01:36.823Z,11.43
2023-01-30T22:04:06.148Z,21.33
2023-01-30T22:06:33.637Z,15.15
2023-01-30T22:09:01.931Z,17.23
2023-01-30T22:11:29.804Z,13.68
2023-01-30T22:13:57.341Z,18.35
2023-01-30T22:16:26.819Z,19.02
2023-01-30T22:18:55.893Z,17.05
2023-01-30T22:21:24.596Z,19.30
2023-01-30T22:23:53.103Z,13.02
2023-01-30T22:26:21.494Z,17.85
2023-01-30T22:28:48.545Z,21.25
2023-01-30T22:31:19.756Z,14.63
2023-01-30T22:33:49.469Z,17.77
2023-01-30T22:36:16.979Z,10.88
2023-01-30T22:38:49.172Z,12.18
2023-01-30T22:41:18.640Z,6.82
2023-01-30T22:43:47.552Z,12.98
2023-01-30T22:46:15.554Z,16.67
2023-01-30T22:48:42.734Z,11.15
2023-01-30T22:51:18.646Z,13.00
2023-01-30T22:53:46.833Z,9.77
2023-01-30T22:56:17.120Z,17.58
2023-01-30T22:58:44.507Z,17.67
2023-01-30T23:01:15.561Z,11.15
2023-01-30T23:03:44.175Z,15.77
2023-01-30T23:06:13.447Z,12.50
2023-01-30T23:08:42.848Z,10.35
2023-01-30T23:11:21.602Z,13.27
2023-01-30T23:13:51.183Z,19.75
2023-01-30T23:16:20.373Z,10.82
2023-01-30T23:18:58.743Z,13.77
2023-01-30T23:21:36.142Z,12.02
2023-01-30T23:24:09.473Z,18.88
2023-01-30T23:26:38.318Z,13.65
2023-01-30T23:29:18.230Z,18.35
2023-01-30T23:31:46.733Z,13.02
2023-01-30T23:34:17.095Z,10.30
2023-01-30T23:36:44.967Z,14.55
2023-01-30T23:39:13.530Z,14.57
2023-01-30T23:41:42.481Z,16.92
2023-01-30T23:44:09.446Z,21.00
2023-01-30T23:46:39.188Z,13.52
2023-01-30T23:49:09.089Z,15.40
2023-01-30T23:51:37.962Z,10.85
2023-01-30T23:54:05.933Z,14.13
2023-01-30T23:56:35.700Z,11.05
2023-01-30T23:59:03.971Z,10.90
